Decoded Metar for CYSC (SHERBROOKE in QC, CANADA) (IATA:YSC) | Meteo·Mobile Aviation Weather
aviador You're here:

CYSC Decoded Metar

SHERBROOKE in QC, CANADA
Report Time2019-03-21 16:00:00
UTC Time2019-03-21 16:32:54
Flight Rules vfr VFR
Wind190° at 11 Gusting to 16 kt
W.Decomp.*RWY 14: 4.3 kt HW 10.1 kt RCW
W.Rank190° ranks 21
Current wind is above 190° avg. (6.2)
Visibility9999 m
Phenomena:N/A
Clouds:N/A
Expected CloudBase > 4,400 ft AGL from Temp-Dew spread
CeilingNone
Temp06°C (ISA -7)
Dew Point-5°C (46% RH)
AAT-0.5°C
QNH1017 hPa
Density Alt-177 ft
Elevation791 ft
Report Wrong Elevation
Raw Report
CYSC 211600Z AUTO 19011G16KT 160V220 9SM CLR 06/M05 A3003 RMK
SLP180=

Extra information for CYSC:More info

Metar Taf Metar & Taf Last 4 Metars F.Rules Stats Wind Profile Meteogram Temp Stats Airport Information Weather charts Add Link Nearby VenuesMetar ALERT Operation Metar Decoded Social comments